Time;durP1;ratioP1;P1;durP2;ratioP2;P2;SDS_P1;SDS_P2;PMS_P1;PMS_P2;Temp;Humidity;BMP_temperature;BMP_pressure;BME280_temperature;BME280_humidity;BME280_pressure;Samples;Min_cycle;Max_cycle;Signal;HPM_P1;HPM_P2
2022/07/04 00:02:25;;;;;;;0.60;0.60;;;13.10;99.90;;;;;;5052620;28;20240;-66
2022/07/04 00:04:51;;;;;;;0.77;0.70;;;13.10;99.90;;;;;;5052641;28;20185;-66
2022/07/04 00:07:17;;;;;;;0.45;0.45;;;13.20;99.90;;;;;;5070519;28;20721;-68
2022/07/04 00:09:42;;;;;;;0.40;0.40;;;13.20;99.90;;;;;;5070649;28;20704;-66
2022/07/04 00:12:08;;;;;;;0.60;0.60;;;13.10;99.90;;;;;;5072318;28;20226;-66
2022/07/04 00:14:34;;;;;;;0.57;0.57;;;13.10;99.90;;;;;;5071191;28;20715;-67
2022/07/04 00:17:00;;;;;;;0.60;0.60;;;13.10;99.90;;;;;;5072258;28;20300;-67
2022/07/04 00:19:26;;;;;;;0.43;0.43;;;13.10;99.90;;;;;;5070682;28;20572;-67
2022/07/04 00:21:51;;;;;;;2.22;0.95;;;13.10;99.90;;;;;;5072278;28;20196;-65
2022/07/04 00:24:17;;;;;;;0.40;0.40;;;13.10;99.90;;;;;;5072171;28;20553;-65
2022/07/04 00:26:43;;;;;;;0.40;0.40;;;13.10;99.90;;;;;;5072151;28;20572;-65
2022/07/04 00:29:09;;;;;;;0.40;0.40;;;13.10;99.90;;;;;;5060882;28;20216;-64
2022/07/04 00:31:35;;;;;;;0.57;0.55;;;13.10;99.90;;;;;;5052064;28;20197;-65
2022/07/04 00:34:01;;;;;;;0.75;0.75;;;13.10;99.90;;;;;;5051855;28;20193;-65
2022/07/04 00:36:26;;;;;;;0.50;0.50;;;13.10;99.90;;;;;;5051962;28;20342;-65
2022/07/04 00:38:52;;;;;;;0.40;0.40;;;13.20;99.90;;;;;;5051901;28;20202;-65
2022/07/04 00:41:18;;;;;;;0.60;0.60;;;13.20;99.90;;;;;;5051594;28;20190;-65
2022/07/04 00:43:58;;;;;;;1.05;0.95;;;13.20;99.90;;;;;;5051932;28;20274;-65
2022/07/04 00:46:24;;;;;;;1.85;0.80;;;13.20;99.90;;;;;;5052106;28;20193;-64
2022/07/04 00:48:50;;;;;;;0.90;0.90;;;13.20;99.90;;;;;;5052265;28;20216;-67
2022/07/04 00:51:16;;;;;;;0.50;0.50;;;13.20;99.90;;;;;;5066909;28;20233;-66
2022/07/04 00:53:42;;;;;;;0.55;0.55;;;13.10;99.90;;;;;;5051552;28;20512;-65
2022/07/04 00:56:08;;;;;;;0.50;0.50;;;13.20;99.90;;;;;;5051346;28;20213;-66
2022/07/04 00:58:34;;;;;;;0.57;0.57;;;13.20;99.90;;;;;;5051395;28;20204;-67
2022/07/04 01:00:59;;;;;;;0.47;0.47;;;13.20;99.90;;;;;;5067149;28;20197;-67
2022/07/04 01:03:25;;;;;;;0.47;0.47;;;13.20;99.90;;;;;;5051408;28;20189;-65
2022/07/04 01:05:51;;;;;;;0.60;0.60;;;13.10;99.90;;;;;;5057127;28;20702;-66
2022/07/04 01:08:17;;;;;;;0.70;0.70;;;13.10;99.90;;;;;;5071501;28;20242;-67
2022/07/04 01:10:42;;;;;;;0.75;0.70;;;13.10;99.90;;;;;;5071409;28;20192;-66
2022/07/04 01:13:18;;;;;;;0.75;0.75;;;13.10;99.90;;;;;;5071630;28;20204;-65
2022/07/04 01:15:43;;;;;;;0.73;0.73;;;13.20;99.90;;;;;;5071260;28;20239;-66
2022/07/04 01:18:09;;;;;;;0.60;0.60;;;13.20;99.90;;;;;;5063407;28;20249;-66
2022/07/04 01:20:36;;;;;;;0.40;0.40;;;13.20;99.90;;;;;;5051249;28;20604;-65
2022/07/04 01:23:02;;;;;;;0.40;0.40;;;13.20;99.90;;;;;;5051550;28;20645;-66
2022/07/04 01:25:28;;;;;;;1.48;0.80;;;13.20;99.90;;;;;;5050761;28;20232;-66
2022/07/04 01:27:53;;;;;;;0.57;0.57;;;13.20;99.90;;;;;;5050526;28;20197;-66
2022/07/04 01:30:19;;;;;;;0.60;0.60;;;13.20;99.90;;;;;;5050920;28;20194;-66
2022/07/04 01:32:44;;;;;;;0.50;0.50;;;13.20;99.90;;;;;;5033087;28;20193;-66
2022/07/04 01:35:12;;;;;;;0.60;0.60;;;13.20;99.90;;;;;;5050847;28;20564;-66
2022/07/04 01:37:38;;;;;;;0.88;0.75;;;13.20;99.90;;;;;;5033046;28;20221;-67
2022/07/04 01:40:04;;;;;;;0.50;0.50;;;13.20;99.90;;;;;;5051092;28;20572;-66
2022/07/04 01:42:30;;;;;;;0.47;0.47;;;13.20;99.90;;;;;;5050812;28;20218;-65
2022/07/04 01:44:56;;;;;;;0.88;0.70;;;13.20;99.90;;;;;;5051003;28;20291;-66
2022/07/04 01:47:22;;;;;;;1.00;0.82;;;13.20;99.90;;;;;;5050817;28;20191;-66
2022/07/04 01:49:47;;;;;;;0.75;0.70;;;13.20;99.90;;;;;;5051480;28;20233;-66
2022/07/04 01:52:15;;;;;;;0.60;0.60;;;13.30;99.90;;;;;;5050432;28;20202;-66
2022/07/04 01:54:41;;;;;;;0.40;0.40;;;13.30;99.90;;;;;;5050601;28;20197;-67
2022/07/04 01:57:07;;;;;;;0.80;0.73;;;13.30;99.90;;;;;;5050826;28;20295;-65
2022/07/04 02:02:17;;;;;;;0.43;0.43;;;13.40;99.90;;;;;;5044889;28;20209;-65
2022/07/04 02:04:43;;;;;;;0.32;0.32;;;13.40;99.90;;;;;;5050278;28;20636;-66
2022/07/04 02:07:09;;;;;;;0.50;0.50;;;13.40;99.90;;;;;;5050019;28;20651;-66
2022/07/04 02:09:35;;;;;;;0.40;0.40;;;13.40;99.90;;;;;;5032362;28;20615;-66
2022/07/04 02:14:44;;;;;;;0.50;0.50;;;13.40;99.90;;;;;;5050525;28;20197;-67
2022/07/04 02:17:11;;;;;;;0.50;0.50;;;13.50;99.90;;;;;;5049839;28;20213;-66
2022/07/04 02:19:37;;;;;;;0.30;0.30;;;13.50;99.90;;;;;;5068707;28;20660;-67
2022/07/04 02:22:03;;;;;;;1.85;1.13;;;13.50;99.90;;;;;;5070291;28;20330;-66
2022/07/04 02:24:29;;;;;;;0.40;0.40;;;13.50;99.90;;;;;;5070065;28;20282;-66
2022/07/04 02:26:54;;;;;;;0.55;0.55;;;13.60;99.90;;;;;;5053564;28;20221;-66
2022/07/04 02:29:20;;;;;;;0.70;0.70;;;13.60;99.90;;;;;;5049751;28;20438;-65
2022/07/04 02:31:46;;;;;;;0.60;0.60;;;13.70;99.90;;;;;;5050247;28;20224;-66
2022/07/04 02:34:12;;;;;;;0.50;0.50;;;13.80;99.90;;;;;;5050450;28;20268;-65
2022/07/04 02:36:38;;;;;;;0.60;0.57;;;13.80;99.90;;;;;;5050360;28;20728;-65
2022/07/04 02:39:04;;;;;;;0.75;0.75;;;13.90;99.90;;;;;;5050591;28;20228;-66
2022/07/04 02:41:31;;;;;;;0.80;0.73;;;13.90;99.90;;;;;;5053905;28;20649;-66
2022/07/04 02:43:57;;;;;;;1.10;1.00;;;14.00;99.90;;;;;;5054275;28;20213;-66
2022/07/04 02:46:23;;;;;;;0.50;0.50;;;14.00;99.90;;;;;;5054497;28;20224;-65
2022/07/04 02:48:48;;;;;;;0.55;0.55;;;14.00;99.90;;;;;;5053703;28;20197;-68
2022/07/04 02:51:14;;;;;;;0.57;0.57;;;14.00;99.90;;;;;;5054029;28;20917;-65
2022/07/04 02:53:40;;;;;;;1.08;0.75;;;14.10;99.90;;;;;;5054443;28;20675;-65
2022/07/04 02:56:06;;;;;;;0.50;0.50;;;14.10;99.90;;;;;;5053967;28;20292;-67
2022/07/04 02:58:32;;;;;;;0.60;0.60;;;14.20;99.90;;;;;;5058315;28;20200;-65
2022/07/04 03:00:59;;;;;;;0.35;0.35;;;14.20;99.90;;;;;;5073480;28;20193;-66
2022/07/04 03:03:24;;;;;;;0.70;0.70;;;14.30;99.90;;;;;;5068388;28;20558;-66
2022/07/04 03:05:50;;;;;;;1.35;0.82;;;14.30;99.90;;;;;;5059439;28;20201;-66
2022/07/04 03:08:16;;;;;;;0.50;0.50;;;14.30;99.90;;;;;;5071971;28;20207;-66
2022/07/04 03:10:42;;;;;;;0.60;0.60;;;14.40;99.90;;;;;;5071854;28;20281;-66
2022/07/04 03:13:07;;;;;;;0.47;0.47;;;14.40;99.90;;;;;;5073650;28;20422;-66
2022/07/04 03:15:33;;;;;;;0.50;0.50;;;14.40;99.90;;;;;;5073351;28;20195;-67
2022/07/04 03:17:59;;;;;;;0.40;0.40;;;14.50;99.90;;;;;;5055487;28;20627;-67
2022/07/04 03:20:25;;;;;;;0.65;0.50;;;14.50;99.90;;;;;;5033330;28;20194;-66
2022/07/04 03:22:51;;;;;;;0.85;0.63;;;14.60;99.90;;;;;;5033195;28;20217;-66
2022/07/04 03:25:17;;;;;;;1.25;0.80;;;14.60;99.90;;;;;;5033369;28;20183;-67
2022/07/04 03:27:43;;;;;;;1.55;1.20;;;14.70;99.90;;;;;;5015424;28;20605;-66
2022/07/04 03:30:09;;;;;;;0.70;0.70;;;14.70;99.90;;;;;;5033099;28;20248;-66
2022/07/04 03:32:34;;;;;;;0.40;0.40;;;14.80;99.90;;;;;;5032973;28;20195;-66
2022/07/04 03:35:00;;;;;;;0.75;0.68;;;14.80;99.90;;;;;;5032820;28;20221;-66
2022/07/04 03:37:26;;;;;;;0.90;0.60;;;14.90;99.90;;;;;;5033439;28;20202;-66
2022/07/04 03:39:52;;;;;;;0.93;0.77;;;14.90;99.90;;;;;;5033039;28;20186;-66
2022/07/04 03:42:17;;;;;;;1.02;0.93;;;14.90;99.90;;;;;;5032958;28;20660;-67
2022/07/04 03:44:43;;;;;;;1.58;1.08;;;14.90;99.90;;;;;;5032815;28;20681;-67
2022/07/04 03:47:09;;;;;;;1.13;0.98;;;15.00;99.90;;;;;;5032908;28;20235;-66
2022/07/04 03:49:35;;;;;;;0.50;0.50;;;15.00;99.90;;;;;;5014911;28;20246;-67
2022/07/04 03:52:00;;;;;;;0.60;0.60;;;15.00;99.90;;;;;;5014868;28;20202;-66
2022/07/04 03:54:28;;;;;;;0.68;0.68;;;15.00;99.90;;;;;;5033963;28;20210;-67
2022/07/04 03:56:54;;;;;;;1.23;1.13;;;15.10;99.90;;;;;;5052534;28;20251;-67
2022/07/04 03:59:20;;;;;;;0.85;0.85;;;15.00;99.90;;;;;;5052241;28;20601;-67
2022/07/04 04:01:46;;;;;;;1.00;0.88;;;15.10;99.90;;;;;;5052984;28;20506;-67
2022/07/04 04:06:55;;;;;;;0.50;0.50;;;15.10;99.90;;;;;;5053323;28;20725;-66
2022/07/04 04:09:24;;;;;;;1.02;0.98;;;15.10;99.90;;;;;;5053829;28;20197;-65
2022/07/04 04:11:50;;;;;;;1.27;1.17;;;15.10;99.90;;;;;;5053611;28;20192;-65
2022/07/04 04:14:16;;;;;;;0.77;0.77;;;15.10;99.90;;;;;;5052876;28;20197;-65
2022/07/04 04:16:42;;;;;;;0.95;0.95;;;15.20;99.90;;;;;;5052992;28;20683;-66
2022/07/04 04:19:11;;;;;;;1.13;0.98;;;15.10;99.90;;;;;;5052236;28;20229;-66
2022/07/04 04:21:37;;;;;;;1.42;1.05;;;15.20;99.90;;;;;;5052236;28;20599;-65
2022/07/04 04:24:03;;;;;;;0.82;0.82;;;15.20;99.90;;;;;;5042772;28;20288;-66
2022/07/04 04:26:29;;;;;;;0.73;0.73;;;15.20;99.90;;;;;;5052282;28;20225;-65
2022/07/04 04:28:55;;;;;;;0.63;0.63;;;15.20;99.90;;;;;;5052602;28;20193;-65
2022/07/04 04:31:21;;;;;;;0.70;0.70;;;15.10;99.90;;;;;;5052089;28;20225;-65
2022/07/04 04:33:47;;;;;;;0.90;0.90;;;15.10;99.90;;;;;;5052509;28;20194;-66
2022/07/04 04:36:13;;;;;;;1.33;0.98;;;15.10;99.90;;;;;;5052296;28;20254;-66
2022/07/04 04:38:38;;;;;;;1.05;0.95;;;15.10;99.90;;;;;;5053714;28;20193;-65
2022/07/04 04:41:04;;;;;;;0.70;0.70;;;15.10;99.90;;;;;;5052817;28;20268;-66
2022/07/04 04:43:30;;;;;;;1.30;1.00;;;15.10;99.90;;;;;;5034150;28;20193;-66
2022/07/04 04:45:56;;;;;;;1.25;0.95;;;15.10;99.90;;;;;;5052536;28;20678;-67
2022/07/04 04:48:22;;;;;;;0.82;0.60;;;15.10;99.90;;;;;;5034963;28;20209;-66
2022/07/04 04:50:47;;;;;;;0.80;0.80;;;15.10;99.90;;;;;;5033969;28;20255;-66
2022/07/04 04:53:13;;;;;;;0.60;0.60;;;15.00;99.90;;;;;;5052705;28;20197;-66
2022/07/04 04:55:39;;;;;;;1.00;0.90;;;15.10;99.90;;;;;;5034972;28;20759;-68
2022/07/04 04:58:05;;;;;;;0.43;0.43;;;15.20;99.90;;;;;;5034878;28;20292;-68
2022/07/04 05:00:31;;;;;;;0.60;0.60;;;15.80;99.90;;;;;;5052338;28;20275;-68
2022/07/04 05:02:57;;;;;;;0.52;0.52;;;16.40;99.90;;;;;;5033740;28;20201;-68
2022/07/04 05:05:23;;;;;;;2.10;1.33;;;17.00;99.90;;;;;;5050081;28;20190;-69
2022/07/04 05:07:48;;;;;;;0.60;0.60;;;17.60;99.90;;;;;;5032817;28;20205;-69
2022/07/04 05:10:15;;;;;;;0.52;0.52;;;18.00;99.90;;;;;;5014602;28;20190;-68
2022/07/04 05:12:42;;;;;;;0.60;0.60;;;18.40;99.90;;;;;;5014365;28;20311;-68
2022/07/04 05:15:08;;;;;;;0.47;0.45;;;18.40;99.90;;;;;;5042892;28;20194;-68
2022/07/04 05:17:34;;;;;;;1.95;1.23;;;18.50;99.90;;;;;;5033883;28;20229;-67
2022/07/04 05:20:00;;;;;;;1.13;0.98;;;18.60;99.90;;;;;;5052401;28;20239;-67
2022/07/04 05:22:25;;;;;;;0.82;0.70;;;18.70;99.90;;;;;;5051980;28;20193;-68
2022/07/04 05:24:51;;;;;;;0.88;0.57;;;18.70;99.90;;;;;;5052707;28;20222;-66
2022/07/04 05:27:17;;;;;;;1.40;0.80;;;18.60;99.90;;;;;;5052328;28;20292;-65
2022/07/04 05:29:42;;;;;;;0.73;0.73;;;18.60;99.90;;;;;;5052045;28;20623;-66
2022/07/04 05:32:08;;;;;;;0.65;0.65;;;18.60;99.90;;;;;;5051935;28;20197;-66
2022/07/04 05:34:34;;;;;;;0.60;0.60;;;18.60;99.90;;;;;;5051627;28;20201;-66
2022/07/04 05:37:01;;;;;;;0.73;0.73;;;18.70;99.90;;;;;;5033804;28;20205;-67
2022/07/04 05:39:26;;;;;;;0.40;0.40;;;18.80;99.90;;;;;;5051620;28;20699;-67
2022/07/04 05:41:52;;;;;;;0.40;0.40;;;18.90;99.90;;;;;;5052074;28;20221;-67
2022/07/04 05:44:18;;;;;;;0.40;0.40;;;18.50;99.90;;;;;;5051919;28;20185;-66
2022/07/04 05:46:44;;;;;;;0.45;0.45;;;18.10;99.90;;;;;;5051408;28;20204;-66
2022/07/04 05:49:09;;;;;;;0.50;0.50;;;17.80;99.90;;;;;;5031735;28;20218;-66
2022/07/04 05:51:35;;;;;;;1.05;0.50;;;17.90;99.90;;;;;;5031461;28;20228;-68
2022/07/04 05:54:01;;;;;;;0.63;0.63;;;18.10;99.90;;;;;;5031754;28;20278;-67
2022/07/04 05:56:26;;;;;;;2.67;0.98;;;18.20;99.90;;;;;;5031371;28;20229;-67
2022/07/04 05:58:52;;;;;;;1.45;0.85;;;18.20;99.90;;;;;;5031451;28;20190;-68
2022/07/04 06:01:18;;;;;;;0.50;0.50;;;18.20;99.90;;;;;;5013611;28;20564;-67
2022/07/04 06:03:44;;;;;;;0.45;0.45;;;18.50;99.90;;;;;;5031544;28;20194;-66
2022/07/04 06:06:09;;;;;;;0.50;0.50;;;18.70;99.90;;;;;;5021923;28;20621;-66
2022/07/04 06:08:35;;;;;;;0.47;0.47;;;18.80;99.90;;;;;;5051245;28;20194;-67
2022/07/04 06:11:03;;;;;;;1.58;0.52;;;19.00;99.90;;;;;;5051200;28;20223;-67
2022/07/04 06:13:28;;;;;;;1.30;0.68;;;19.10;99.90;;;;;;5050878;28;20653;-68
2022/07/04 06:15:55;;;;;;;0.40;0.40;;;19.20;99.90;;;;;;5033251;28;20355;-67
2022/07/04 06:18:20;;;;;;;0.40;0.40;;;19.20;99.90;;;;;;5050882;28;20279;-68
2022/07/04 06:20:46;;;;;;;0.40;0.40;;;19.10;99.90;;;;;;5051301;28;20190;-69
2022/07/04 06:23:12;;;;;;;0.55;0.40;;;19.00;99.90;;;;;;5051137;28;20269;-67
2022/07/04 06:25:37;;;;;;;0.52;0.52;;;19.10;99.90;;;;;;5033165;28;20197;-68
2022/07/04 06:28:03;;;;;;;0.45;0.45;;;19.10;99.90;;;;;;5051127;28;20197;-67
2022/07/04 06:30:29;;;;;;;0.50;0.50;;;18.80;99.90;;;;;;5051007;28;20194;-68
2022/07/04 06:32:57;;;;;;;0.40;0.40;;;18.30;99.90;;;;;;5033246;28;20223;-68
2022/07/04 06:38:09;;;;;;;0.38;0.38;;;17.90;99.90;;;;;;5051394;28;20199;-67
2022/07/04 06:40:36;;;;;;;0.40;0.40;;;18.00;99.90;;;;;;5050821;28;20251;-68
2022/07/04 06:43:03;;;;;;;0.57;0.57;;;18.10;99.90;;;;;;5050293;28;20276;-67
2022/07/04 06:45:29;;;;;;;0.40;0.40;;;18.30;99.90;;;;;;5050888;28;20556;-67
2022/07/04 06:47:54;;;;;;;0.38;0.38;;;18.30;99.90;;;;;;5050923;28;20276;-67
2022/07/04 06:50:20;;;;;;;0.43;0.43;;;18.30;99.90;;;;;;5051053;28;20223;-68
2022/07/04 06:52:46;;;;;;;0.40;0.40;;;18.50;99.90;;;;;;5050933;28;20193;-67
2022/07/04 06:55:12;;;;;;;0.60;0.60;;;18.80;99.90;;;;;;5050853;28;20220;-68
2022/07/04 06:57:38;;;;;;;0.70;0.55;;;19.00;99.90;;;;;;5050719;28;20668;-68
2022/07/04 07:00:06;;;;;;;0.63;0.55;;;19.20;99.90;;;;;;5051113;28;20560;-67
2022/07/04 07:02:34;;;;;;;0.60;0.60;;;19.20;99.90;;;;;;5050514;28;20218;-67
2022/07/04 07:05:00;;;;;;;2.85;1.27;;;19.40;99.90;;;;;;5050708;28;20197;-67
2022/07/04 07:07:27;;;;;;;0.52;0.40;;;19.60;99.90;;;;;;5050341;28;20672;-67
2022/07/04 07:09:54;;;;;;;0.47;0.47;;;19.70;99.90;;;;;;5050731;28;20227;-66
2022/07/04 07:12:23;;;;;;;0.30;0.30;;;19.80;99.90;;;;;;5050545;28;20201;-67
2022/07/04 07:14:50;;;;;;;2.17;0.82;;;19.70;99.90;;;;;;5050660;28;20331;-68
2022/07/04 07:17:17;;;;;;;0.68;0.68;;;19.60;99.90;;;;;;5050596;28;20209;-67
2022/07/04 07:19:43;;;;;;;0.50;0.50;;;19.30;99.90;;;;;;5050579;28;20228;-67
2022/07/04 07:22:13;;;;;;;0.52;0.52;;;19.10;99.90;;;;;;5050633;28;20206;-67
2022/07/04 07:24:39;;;;;;;0.75;0.70;;;19.10;99.90;;;;;;5032467;28;20206;-67
2022/07/04 07:27:05;;;;;;;0.40;0.40;;;19.00;99.90;;;;;;5053067;28;20559;-67
2022/07/04 07:29:31;;;;;;;1.55;0.98;;;19.10;99.90;;;;;;5054245;28;20197;-67
2022/07/04 07:31:58;;;;;;;0.30;0.30;;;19.30;99.90;;;;;;5054199;28;20656;-67
2022/07/04 07:34:23;;;;;;;2.72;0.50;;;19.50;99.90;;;;;;5053922;28;20196;-67
2022/07/04 07:36:49;;;;;;;0.45;0.45;;;19.50;99.90;;;;;;5054033;28;20210;-66
2022/07/04 07:39:15;;;;;;;0.57;0.43;;;19.50;99.90;;;;;;5051474;28;20186;-68
2022/07/04 07:41:41;;;;;;;0.32;0.32;;;19.50;99.90;;;;;;5035864;28;20566;-66
2022/07/04 07:44:07;;;;;;;0.20;0.20;;;19.20;99.90;;;;;;5054201;28;20192;-67
2022/07/04 07:46:33;;;;;;;3.08;1.17;;;19.10;99.90;;;;;;5053977;28;20194;-67
2022/07/04 07:48:59;;;;;;;0.20;0.20;;;19.30;99.90;;;;;;5053803;28;20223;-67
2022/07/04 07:51:25;;;;;;;0.43;0.43;;;19.30;99.90;;;;;;5053677;28;20506;-67
2022/07/04 07:53:51;;;;;;;0.22;0.22;;;19.30;99.90;;;;;;5053759;28;20798;-67
2022/07/04 07:56:16;;;;;;;0.40;0.40;;;18.90;99.90;;;;;;5035746;28;20198;-68
2022/07/04 07:58:42;;;;;;;0.30;0.30;;;19.00;99.90;;;;;;5053407;28;20189;-67
2022/07/04 08:01:08;;;;;;;0.30;0.30;;;19.00;99.90;;;;;;5053548;28;20202;-67
2022/07/04 08:06:17;;;;;;;0.52;0.40;;;19.30;99.90;;;;;;5053740;28;20205;-68
2022/07/04 08:08:43;;;;;;;0.30;0.30;;;19.80;99.90;;;;;;5053386;28;20189;-68
2022/07/04 08:11:11;;;;;;;0.52;0.40;;;20.10;99.90;;;;;;5053371;28;20236;-67
2022/07/04 08:13:37;;;;;;;0.30;0.30;;;20.20;99.90;;;;;;5053157;28;20193;-68
2022/07/04 08:16:04;;;;;;;0.40;0.40;;;20.30;99.90;;;;;;5053252;28;20202;-67
2022/07/04 08:18:30;;;;;;;0.30;0.30;;;20.10;99.90;;;;;;5052368;28;20710;-67
2022/07/04 08:20:57;;;;;;;0.20;0.20;;;20.10;99.90;;;;;;5072049;28;20699;-67
2022/07/04 08:23:23;;;;;;;0.20;0.20;;;19.80;99.90;;;;;;5071763;28;20200;-67
2022/07/04 08:25:48;;;;;;;0.20;0.20;;;19.80;99.90;;;;;;5073298;28;20647;-66
2022/07/04 08:28:14;;;;;;;0.20;0.20;;;19.80;99.90;;;;;;5073067;28;20193;-67
2022/07/04 08:30:40;;;;;;;0.40;0.30;;;19.80;99.90;;;;;;5072912;28;20200;-66
2022/07/04 08:33:05;;;;;;;0.20;0.20;;;19.70;99.90;;;;;;5072981;28;20250;-67
2022/07/04 08:35:31;;;;;;;0.30;0.30;;;19.80;99.90;;;;;;5070929;28;20195;-67
2022/07/04 08:37:57;;;;;;;0.38;0.38;;;19.90;99.90;;;;;;5072909;28;20209;-67
2022/07/04 08:40:24;;;;;;;0.20;0.20;;;19.80;99.90;;;;;;5072713;28;20280;-67
2022/07/04 08:42:50;;;;;;;0.50;0.43;;;19.80;99.90;;;;;;5072810;28;20604;-68
2022/07/04 08:45:17;;;;;;;0.30;0.30;;;19.50;99.90;;;;;;5072779;28;20196;-69
2022/07/04 08:47:47;;;;;;;0.28;0.28;;;19.20;99.90;;;;;;5072692;28;20687;-68
2022/07/04 08:50:29;;;;;;;0.30;0.30;;;19.10;99.90;;;;;;5072591;28;20648;-68
2022/07/04 08:53:03;;;;;;;0.88;0.60;;;18.70;99.90;;;;;;5072633;28;20212;-67
2022/07/04 08:58:29;;;;;;;0.40;0.40;;;18.80;99.90;;;;;;5072739;28;20207;-68
2022/07/04 09:00:59;;;;;;;0.40;0.40;;;19.00;99.90;;;;;;5072133;28;20535;-67
2022/07/04 09:03:27;;;;;;;0.77;0.60;;;19.30;99.90;;;;;;5070900;28;20562;-67
2022/07/04 09:05:53;;;;;;;0.32;0.32;;;19.30;99.90;;;;;;5070980;28;20226;-67
2022/07/04 09:08:19;;;;;;;0.20;0.20;;;19.60;99.90;;;;;;5072130;28;20219;-66
2022/07/04 09:10:46;;;;;;;0.30;0.30;;;19.80;99.90;;;;;;5072282;28;20192;-67
2022/07/04 09:13:14;;;;;;;0.30;0.30;;;19.60;99.90;;;;;;5072205;28;20188;-67
2022/07/04 09:15:42;;;;;;;0.77;0.45;;;19.70;99.90;;;;;;5071910;28;20248;-68
2022/07/04 09:18:27;;;;;;;0.30;0.30;;;19.80;99.90;;;;;;5070725;28;20417;-69
2022/07/04 09:20:54;;;;;;;0.20;0.20;;;20.10;99.90;;;;;;5072034;28;20220;-68
2022/07/04 09:23:27;;;;;;;0.32;0.32;;;20.50;99.90;;;;;;5071865;28;20204;-68
2022/07/04 09:26:19;;;;;;;0.20;0.20;;;20.90;99.90;;;;;;5071939;28;20667;-69
2022/07/04 09:28:52;;;;;;;0.70;0.50;;;20.90;99.90;;;;;;5070715;28;20189;-68
2022/07/04 09:31:23;;;;;;;0.35;0.35;;;21.60;99.90;;;;;;5070462;28;20193;-69
2022/07/04 09:33:55;;;;;;;0.38;0.38;;;21.80;99.90;;;;;;5069985;28;20207;-67
2022/07/04 09:36:25;;;;;;;0.30;0.30;;;21.70;99.90;;;;;;5071543;28;20205;-68
2022/07/04 09:39:06;;;;;;;0.10;0.10;;;21.50;99.90;;;;;;5071771;28;20185;-68
2022/07/04 09:41:48;;;;;;;0.25;0.25;;;21.20;99.90;;;;;;5071869;28;20274;-68
2022/07/04 09:44:14;;;;;;;0.40;0.40;;;20.90;99.90;;;;;;5071673;28;20250;-67
2022/07/04 09:46:40;;;;;;;0.45;0.38;;;20.60;99.90;;;;;;5071450;28;20659;-67
2022/07/04 09:49:05;;;;;;;0.20;0.20;;;21.10;99.90;;;;;;5071248;28;20200;-67
2022/07/04 09:51:42;;;;;;;0.30;0.30;;;21.60;99.90;;;;;;5071408;28;20208;-67
2022/07/04 09:54:27;;;;;;;0.20;0.20;;;21.30;99.90;;;;;;5070216;28;20200;-69
2022/07/04 09:57:01;;;;;;;0.35;0.35;;;21.00;99.90;;;;;;5071288;28;20301;-67
2022/07/04 09:59:28;;;;;;;0.20;0.20;;;21.50;99.90;;;;;;5071147;28;20271;-67
2022/07/04 10:02:11;;;;;;;3.00;0.55;;;22.60;99.90;;;;;;5071395;28;20193;-68
2022/07/04 10:04:51;;;;;;;0.30;0.30;;;23.60;99.90;;;;;;5071180;28;20189;-68
2022/07/04 10:07:43;;;;;;;0.30;0.30;;;24.20;99.90;;;;;;5066768;28;20738;-68
2022/07/04 10:10:24;;;;;;;0.70;0.40;;;24.20;99.90;;;;;;5051371;28;20189;-68
2022/07/04 10:12:51;;;;;;;0.35;0.35;;;25.10;99.90;;;;;;5051297;28;20197;-69
2022/07/04 10:15:18;;;;;;;0.30;0.30;;;24.70;99.90;;;;;;5051262;28;20224;-69
2022/07/04 10:17:43;;;;;;;0.30;0.30;;;24.70;99.90;;;;;;5047351;28;20218;-67
2022/07/04 10:20:11;;;;;;;0.20;0.20;;;24.40;99.90;;;;;;5013916;28;20202;-67
2022/07/04 10:22:38;;;;;;;0.20;0.20;;;24.30;99.90;;;;;;5031103;28;20324;-67
2022/07/04 10:25:05;;;;;;;0.20;0.20;;;24.20;99.90;;;;;;5031181;28;20225;-69
2022/07/04 10:27:31;;;;;;;0.20;0.20;;;24.20;99.90;;;;;;5030986;28;20608;-67
2022/07/04 10:29:58;;;;;;;0.20;0.20;;;24.60;99.90;;;;;;5049128;28;20296;-68
2022/07/04 10:32:26;;;;;;;0.20;0.20;;;25.00;99.90;;;;;;5033008;28;20205;-67
2022/07/04 10:34:52;;;;;;;0.45;0.45;;;24.60;99.90;;;;;;5051050;28;20198;-67
2022/07/04 10:37:17;;;;;;;0.25;0.25;;;24.90;99.90;;;;;;5050915;28;20548;-67
2022/07/04 10:39:43;;;;;;;0.52;0.43;;;24.90;99.90;;;;;;5051021;28;20620;-66
2022/07/04 10:42:21;;;;;;;0.10;0.10;;;25.00;99.90;;;;;;5050983;28;20197;-67
2022/07/04 10:44:49;;;;;;;0.25;0.25;;;25.50;99.90;;;;;;5050946;28;20213;-68
2022/07/04 10:47:27;;;;;;;0.38;0.35;;;25.80;99.90;;;;;;5050954;28;20281;-67
2022/07/04 10:49:52;;;;;;;1.10;0.30;;;25.30;99.90;;;;;;5050902;28;20247;-67
2022/07/04 10:52:18;;;;;;;0.10;0.10;;;25.20;99.90;;;;;;5024819;28;20210;-68
2022/07/04 10:54:45;;;;;;;0.43;0.43;;;25.00;99.90;;;;;;5030957;28;20202;-66
2022/07/04 10:57:15;;;;;;;0.30;0.30;;;24.50;99.90;;;;;;5030840;28;20203;-68
2022/07/04 10:59:54;;;;;;;0.38;0.38;;;24.90;99.90;;;;;;5030758;28;20752;-68
2022/07/04 11:02:22;;;;;;;0.20;0.20;;;25.30;99.90;;;;;;5033497;28;20202;-68
2022/07/04 11:05:02;;;;;;;0.50;0.50;;;25.60;99.90;;;;;;5034687;28;20410;-67
2022/07/04 11:07:40;;;;;;;0.30;0.30;;;25.30;99.90;;;;;;5034426;28;20275;-68
2022/07/04 11:12:55;;;;;;;0.90;0.50;;;23.80;99.90;;;;;;5034645;28;20197;-68
2022/07/04 11:15:29;;;;;;;0.77;0.65;;;22.90;99.90;;;;;;5034368;28;20221;-67
2022/07/04 11:18:14;;;;;;;0.57;0.43;;;22.40;99.90;;;;;;5034403;28;20229;-67
2022/07/04 11:20:48;;;;;;;0.60;0.60;;;21.80;99.90;;;;;;5033019;28;20205;-67
2022/07/04 11:23:21;;;;;;;0.73;0.73;;;21.10;99.90;;;;;;5033125;28;20289;-68
2022/07/04 11:25:50;;;;;;;6.85;0.73;;;20.60;99.90;;;;;;5048946;28;20603;-68
2022/07/04 11:28:26;;;;;;;0.17;0.17;;;20.00;99.90;;;;;;5054155;28;20193;-67
2022/07/04 11:30:54;;;;;;;0.40;0.40;;;19.40;99.90;;;;;;5054260;28;20189;-67
2022/07/04 11:33:23;;;;;;;0.32;0.32;;;19.10;99.90;;;;;;5053870;28;20185;-68
2022/07/04 11:36:11;;;;;;;0.33;0.33;;;18.90;99.90;;;;;;5054316;28;20192;-68
2022/07/04 11:39:00;;;;;;;0.93;0.28;;;18.90;99.90;;;;;;5053811;28;20189;-68
2022/07/04 11:47:19;;;;;;;0.30;0.30;;;20.60;99.90;;;;;;5034253;28;20240;-69
2022/07/04 11:49:55;;;;;;;0.30;0.30;;;21.80;99.90;;;;;;5034210;28;20547;-67
2022/07/04 11:52:23;;;;;;;2.83;0.45;;;22.40;99.90;;;;;;5033622;28;20580;-68
2022/07/04 11:54:51;;;;;;;0.20;0.20;;;23.00;99.90;;;;;;5033867;28;20218;-67
2022/07/04 11:57:23;;;;;;;0.20;0.20;;;23.40;99.90;;;;;;5033739;28;20198;-69
2022/07/04 12:00:10;;;;;;;0.25;0.25;;;23.50;99.90;;;;;;5015827;28;20244;-68
2022/07/04 12:02:37;;;;;;;0.20;0.20;;;23.40;99.90;;;;;;5015631;28;20599;-68
2022/07/04 12:05:05;;;;;;;0.30;0.30;;;23.20;99.90;;;;;;5033599;28;20195;-68
2022/07/04 12:07:33;;;;;;;0.40;0.40;;;23.80;99.90;;;;;;5052908;28;20228;-67
2022/07/04 12:10:14;;;;;;;0.22;0.20;;;23.60;99.90;;;;;;5053392;28;20247;-67
2022/07/04 12:13:07;;;;;;;0.20;0.20;;;23.30;99.90;;;;;;5052791;28;20217;-67
2022/07/04 12:15:43;;;;;;;0.20;0.20;;;22.80;99.90;;;;;;5053141;28;20189;-68
2022/07/04 12:18:19;;;;;;;0.32;0.32;;;22.10;99.90;;;;;;5053122;28;20727;-67
2022/07/04 12:20:46;;;;;;;0.20;0.20;;;21.70;99.90;;;;;;5050904;28;20197;-67
2022/07/04 12:23:12;;;;;;;0.30;0.30;;;21.50;99.90;;;;;;5033228;28;20190;-66
2022/07/04 12:25:39;;;;;;;0.20;0.20;;;21.50;99.90;;;;;;5033083;28;20751;-67
2022/07/04 12:28:09;;;;;;;4.03;0.77;;;21.80;99.90;;;;;;5033127;28;20194;-68
2022/07/04 12:30:39;;;;;;;0.20;0.20;;;22.00;99.90;;;;;;5032950;28;20205;-68
2022/07/04 12:33:07;;;;;;;0.30;0.30;;;23.00;99.90;;;;;;5033012;28;20201;-67
2022/07/04 12:35:55;;;;;;;0.30;0.30;;;23.70;99.90;;;;;;5032826;28;20186;-67
2022/07/04 12:38:27;;;;;;;1.65;0.55;;;24.20;99.90;;;;;;5032725;28;20205;-67
2022/07/04 12:40:56;;;;;;;0.20;0.20;;;24.20;99.90;;;;;;5032897;28;20575;-67
2022/07/04 12:43:23;;;;;;;2.38;0.70;;;23.90;99.90;;;;;;5032653;28;20240;-67
2022/07/04 12:45:54;;;;;;;0.22;0.22;;;22.90;99.90;;;;;;5049006;28;20193;-67
2022/07/04 12:48:27;;;;;;;0.20;0.20;;;22.30;99.90;;;;;;5052463;28;20193;-67
2022/07/04 12:50:54;;;;;;;0.20;0.20;;;21.70;99.90;;;;;;5053088;28;20252;-67
2022/07/04 12:53:21;;;;;;;0.30;0.30;;;21.60;99.90;;;;;;5052413;28;20225;-67
2022/07/04 12:55:48;;;;;;;0.38;0.38;;;21.30;99.90;;;;;;5034607;28;20197;-67
2022/07/04 12:58:14;;;;;;;6.38;3.22;;;20.40;99.90;;;;;;5052385;28;20186;-67
2022/07/04 13:00:41;;;;;;;0.50;0.50;;;20.10;99.90;;;;;;5052104;28;20189;-67
2022/07/04 13:03:07;;;;;;;0.38;0.32;;;19.70;99.90;;;;;;5048704;28;20255;-67
2022/07/04 13:05:35;;;;;;;0.50;0.50;;;19.70;99.90;;;;;;5035459;28;20193;-68
2022/07/04 13:08:02;;;;;;;0.35;0.28;;;20.00;99.90;;;;;;5052261;28;20691;-67
2022/07/04 13:10:27;;;;;;;0.55;0.40;;;20.30;99.90;;;;;;5052032;28;20279;-67
2022/07/04 13:12:53;;;;;;;0.40;0.40;;;20.70;99.90;;;;;;5052041;28;20280;-66
2022/07/04 13:15:19;;;;;;;0.22;0.22;;;20.60;99.90;;;;;;5052027;28;20206;-67
2022/07/04 13:17:44;;;;;;;0.22;0.22;;;20.50;99.90;;;;;;5051479;28;20225;-67